Time;durP1;ratioP1;P1;durP2;ratioP2;P2;SDS_P1;SDS_P2;PMS_P1;PMS_P2;Temp;Humidity;BMP_temperature;BMP_pressure;BME280_temperature;BME280_humidity;BME280_pressure;Samples;Min_cycle;Max_cycle;Signal;HPM_P1;HPM_P2
2022/11/05 00:09:31;;;;;;;7.30;3.30;;;7.90;99.90;;;;;;4984188;28;20241;-62
2022/11/05 00:17:31;;;;;;;5.37;3.17;;;7.90;99.90;;;;;;4985346;28;20240;-62
2022/11/05 00:19:57;;;;;;;6.83;2.93;;;7.80;99.90;;;;;;5010307;28;21023;-62
2022/11/05 00:25:18;;;;;;;6.60;2.73;;;7.70;99.90;;;;;;4992556;28;20716;-61
2022/11/05 00:27:47;;;;;;;5.80;3.07;;;7.70;99.90;;;;;;5008024;28;20208;-63
2022/11/05 00:30:16;;;;;;;5.67;2.70;;;7.70;99.90;;;;;;5005791;28;20230;-63
2022/11/05 00:32:45;;;;;;;8.47;2.90;;;7.70;99.90;;;;;;4977409;28;20312;-62
2022/11/05 00:35:13;;;;;;;7.37;3.30;;;7.60;99.90;;;;;;5008767;28;20664;-62
2022/11/05 00:37:40;;;;;;;7.33;3.33;;;7.70;99.90;;;;;;4985732;28;20724;-62
2022/11/05 00:40:08;;;;;;;5.30;3.03;;;7.60;99.90;;;;;;4984260;28;20210;-62
2022/11/05 00:45:21;;;;;;;9.83;2.97;;;7.70;99.90;;;;;;4994397;28;20225;-62
2022/11/05 00:50:34;;;;;;;10.67;3.07;;;7.70;99.90;;;;;;5004068;28;20229;-62
2022/11/05 00:53:01;;;;;;;7.70;3.10;;;7.70;99.90;;;;;;4997893;28;20778;-63
2022/11/05 00:55:33;;;;;;;8.60;2.97;;;7.60;99.90;;;;;;4974949;28;20225;-62
2022/11/05 00:58:01;;;;;;;9.77;2.70;;;7.60;99.90;;;;;;4990724;28;20201;-62
2022/11/05 01:00:30;;;;;;;10.77;3.37;;;7.60;99.90;;;;;;4980534;28;20209;-62
2022/11/05 01:03:03;;;;;;;6.60;3.33;;;7.60;99.90;;;;;;4978386;28;20210;-62
2022/11/05 01:05:31;;;;;;;6.20;2.67;;;7.50;99.90;;;;;;5004693;28;20722;-62
2022/11/05 01:07:58;;;;;;;5.70;2.40;;;7.40;99.90;;;;;;4993106;28;20719;-63
2022/11/05 01:10:26;;;;;;;15.63;3.10;;;7.50;99.90;;;;;;4984817;28;20232;-62
2022/11/05 01:12:53;;;;;;;8.40;3.07;;;7.50;99.90;;;;;;5001515;28;20213;-62
2022/11/05 01:15:20;;;;;;;9.57;3.40;;;7.50;99.90;;;;;;4995051;28;20206;-62
2022/11/05 01:17:47;;;;;;;3.33;2.67;;;7.50;99.90;;;;;;4988025;28;20209;-62
2022/11/05 01:20:16;;;;;;;11.33;3.37;;;7.40;99.90;;;;;;4995764;28;20208;-62
2022/11/05 01:22:43;;;;;;;5.23;2.37;;;7.50;99.90;;;;;;4976815;28;20213;-63
2022/11/05 01:25:10;;;;;;;11.20;3.10;;;7.40;99.90;;;;;;4984458;28;20219;-62
2022/11/05 01:27:38;;;;;;;9.77;2.70;;;7.40;99.90;;;;;;4988539;28;20942;-62
2022/11/05 01:30:07;;;;;;;9.20;3.20;;;7.50;99.90;;;;;;5007440;28;20245;-62
2022/11/05 01:32:35;;;;;;;7.80;3.97;;;7.50;99.90;;;;;;4995547;28;20195;-65
2022/11/05 01:35:02;;;;;;;6.73;2.97;;;7.50;99.90;;;;;;5002476;28;20281;-62
2022/11/05 01:37:30;;;;;;;4.17;2.97;;;7.40;99.90;;;;;;4994915;28;20711;-62
2022/11/05 01:39:57;;;;;;;4.77;2.60;;;7.40;99.90;;;;;;4996986;28;20212;-62
2022/11/05 01:42:26;;;;;;;12.67;3.20;;;7.30;99.90;;;;;;4977445;28;20210;-62
2022/11/05 01:44:56;;;;;;;6.80;2.80;;;7.30;99.90;;;;;;5002015;28;20212;-62
2022/11/05 01:47:36;;;;;;;5.23;2.50;;;7.20;99.90;;;;;;5010636;28;20234;-62
2022/11/05 01:50:09;;;;;;;4.43;2.63;;;7.20;99.90;;;;;;5007676;28;20688;-62
2022/11/05 01:52:38;;;;;;;4.73;2.47;;;7.20;99.90;;;;;;4993187;28;20208;-62
2022/11/05 01:55:07;;;;;;;5.87;2.40;;;7.20;99.90;;;;;;4999757;28;20213;-62
2022/11/05 01:57:34;;;;;;;12.70;2.87;;;7.30;99.90;;;;;;4971063;28;20202;-62
2022/11/05 02:00:02;;;;;;;7.60;2.80;;;7.20;99.90;;;;;;4999727;28;20861;-62
2022/11/05 02:02:30;;;;;;;3.30;1.93;;;7.30;99.90;;;;;;4994661;28;20233;-62
2022/11/05 02:05:00;;;;;;;3.70;2.13;;;7.40;99.90;;;;;;4997056;28;20202;-62
2022/11/05 02:07:29;;;;;;;3.20;2.50;;;7.30;99.90;;;;;;4990284;28;20209;-62
2022/11/05 02:10:01;;;;;;;9.87;2.53;;;7.30;99.90;;;;;;4993226;28;20476;-62
2022/11/05 02:12:28;;;;;;;8.20;2.63;;;7.30;99.90;;;;;;4987496;28;20233;-62
2022/11/05 02:14:56;;;;;;;5.80;2.73;;;7.30;99.90;;;;;;4988137;28;21015;-62
2022/11/05 02:17:34;;;;;;;4.10;2.77;;;7.30;99.90;;;;;;5007593;28;20218;-62
2022/11/05 02:20:31;;;;;;;8.43;2.83;;;7.20;99.90;;;;;;4985939;28;20204;-62
2022/11/05 02:23:40;;;;;;;7.93;2.87;;;7.20;99.90;;;;;;4997728;28;20198;-62
2022/11/05 02:26:49;;;;;;;8.50;3.10;;;7.10;99.90;;;;;;4990901;28;20210;-62
2022/11/05 02:30:03;;;;;;;5.87;2.93;;;7.10;99.90;;;;;;4974600;28;20229;-62
2022/11/05 02:32:50;;;;;;;8.83;2.90;;;7.10;99.90;;;;;;4995235;28;20211;-62
2022/11/05 02:35:28;;;;;;;2.83;2.50;;;7.20;99.90;;;;;;4990382;28;20210;-62
2022/11/05 02:38:05;;;;;;;9.30;2.70;;;7.10;99.90;;;;;;4999604;28;20213;-62
2022/11/05 02:40:42;;;;;;;4.37;2.47;;;7.10;99.90;;;;;;4997027;28;20201;-62
2022/11/05 02:43:14;;;;;;;5.37;2.50;;;7.10;99.90;;;;;;4972047;28;20204;-62
2022/11/05 02:45:49;;;;;;;14.63;3.57;;;7.10;99.90;;;;;;4994992;28;20231;-62
2022/11/05 02:48:26;;;;;;;5.03;2.50;;;7.10;99.90;;;;;;4989635;28;20210;-62
2022/11/05 02:50:59;;;;;;;9.50;3.00;;;7.10;99.90;;;;;;4988900;28;20233;-62
2022/11/05 02:53:34;;;;;;;7.17;2.90;;;7.00;99.90;;;;;;4999147;28;20245;-62
2022/11/05 02:56:05;;;;;;;5.03;2.50;;;7.00;99.90;;;;;;4985724;28;20205;-62
2022/11/05 02:58:34;;;;;;;9.67;2.97;;;7.00;99.90;;;;;;4985475;28;20212;-62
2022/11/05 03:01:05;;;;;;;9.47;2.50;;;7.10;99.90;;;;;;4995186;28;20657;-62
2022/11/05 03:03:37;;;;;;;6.37;2.27;;;7.10;99.90;;;;;;5009978;28;20757;-62
2022/11/05 03:06:42;;;;;;;7.33;2.80;;;7.00;99.90;;;;;;4980397;28;20225;-62
2022/11/05 03:09:34;;;;;;;11.53;2.97;;;7.00;99.90;;;;;;5007578;28;20197;-62
2022/11/05 03:12:12;;;;;;;6.23;2.27;;;6.90;99.90;;;;;;4988737;28;20202;-62
2022/11/05 03:14:51;;;;;;;13.23;2.20;;;6.90;99.90;;;;;;4978562;28;20202;-62
2022/11/05 03:17:26;;;;;;;6.87;2.80;;;6.90;99.90;;;;;;5007663;28;20664;-62
2022/11/05 03:20:07;;;;;;;5.67;2.67;;;7.00;99.90;;;;;;5002493;28;20209;-62
2022/11/05 03:22:38;;;;;;;10.77;3.10;;;7.00;99.90;;;;;;4989848;28;20217;-62
2022/11/05 03:25:10;;;;;;;6.57;2.47;;;7.00;99.90;;;;;;4978981;28;20213;-62
2022/11/05 03:27:41;;;;;;;6.23;2.80;;;7.00;99.90;;;;;;4986724;28;20202;-62
2022/11/05 03:30:11;;;;;;;6.33;2.40;;;7.00;99.90;;;;;;4972333;28;20222;-63
2022/11/05 03:32:41;;;;;;;5.53;2.20;;;7.10;99.90;;;;;;5001126;28;21119;-62
2022/11/05 03:35:13;;;;;;;6.53;2.50;;;7.10;99.90;;;;;;5008447;28;20912;-62
2022/11/05 03:37:43;;;;;;;5.67;2.57;;;7.00;99.90;;;;;;4991517;28;20648;-63
2022/11/05 03:40:12;;;;;;;9.50;2.90;;;7.00;99.90;;;;;;4978843;28;21369;-62
2022/11/05 03:42:43;;;;;;;4.03;2.47;;;7.00;99.90;;;;;;4998033;28;20202;-62
2022/11/05 03:45:14;;;;;;;9.60;2.53;;;7.00;99.90;;;;;;4976620;28;20206;-63
2022/11/05 03:47:44;;;;;;;2.40;1.93;;;7.00;99.90;;;;;;4999115;28;20741;-62
2022/11/05 03:50:20;;;;;;;7.97;3.20;;;7.00;99.90;;;;;;5009627;28;20229;-62
2022/11/05 03:52:52;;;;;;;7.00;3.07;;;6.90;99.90;;;;;;4990581;28;20240;-62
2022/11/05 03:55:22;;;;;;;4.40;2.40;;;6.90;99.90;;;;;;4993102;28;20206;-62
2022/11/05 03:57:51;;;;;;;3.70;2.57;;;7.00;99.90;;;;;;5003570;28;20202;-62
2022/11/05 04:00:18;;;;;;;6.00;2.50;;;6.90;99.90;;;;;;4968506;28;20686;-62
2022/11/05 04:02:44;;;;;;;4.80;2.30;;;7.00;99.90;;;;;;5001002;28;20206;-62
2022/11/05 04:05:12;;;;;;;5.10;2.40;;;6.80;99.90;;;;;;5007624;28;20202;-62
2022/11/05 04:13:26;;;;;;;6.47;2.43;;;6.90;99.90;;;;;;5005101;28;20212;-62
2022/11/05 04:18:35;;;;;;;3.93;2.40;;;6.80;99.90;;;;;;4975127;28;20206;-62
2022/11/05 04:26:32;;;;;;;8.97;2.50;;;6.80;99.90;;;;;;4992825;28;21208;-62
2022/11/05 04:31:43;;;;;;;9.20;2.77;;;6.90;99.90;;;;;;4974617;28;20292;-62
2022/11/05 04:34:10;;;;;;;4.33;2.63;;;6.80;99.90;;;;;;4994577;28;20684;-62
2022/11/05 04:36:37;;;;;;;13.60;2.37;;;6.80;99.90;;;;;;5004719;28;20201;-62
2022/11/05 04:39:05;;;;;;;6.00;2.70;;;6.70;99.90;;;;;;4990799;28;20210;-62
2022/11/05 04:41:32;;;;;;;6.27;2.40;;;6.80;99.90;;;;;;4994064;28;21183;-63
2022/11/05 04:43:58;;;;;;;6.93;2.30;;;6.80;99.90;;;;;;5008475;28;20202;-62
2022/11/05 04:46:25;;;;;;;9.10;2.47;;;6.70;99.90;;;;;;4969198;28;20226;-62
2022/11/05 04:48:52;;;;;;;5.07;2.70;;;6.80;99.90;;;;;;4998081;28;20209;-62
2022/11/05 04:51:19;;;;;;;7.43;3.67;;;6.80;99.90;;;;;;4998243;28;20238;-62
2022/11/05 04:53:45;;;;;;;6.20;3.40;;;6.80;99.90;;;;;;4986777;28;20210;-63
2022/11/05 04:56:19;;;;;;;4.87;2.63;;;6.80;99.90;;;;;;5000184;28;20198;-62
2022/11/05 04:58:46;;;;;;;3.83;2.33;;;6.70;99.90;;;;;;5006086;28;20237;-61
2022/11/05 05:01:14;;;;;;;6.43;2.77;;;6.80;99.90;;;;;;4986408;28;20222;-62
2022/11/05 05:03:41;;;;;;;3.83;2.50;;;6.70;99.90;;;;;;4984288;28;20320;-62
2022/11/05 05:06:08;;;;;;;11.73;3.77;;;6.60;99.90;;;;;;5010270;28;20205;-62
2022/11/05 05:08:35;;;;;;;6.40;3.30;;;6.60;99.90;;;;;;5000875;28;20210;-61
2022/11/05 05:11:03;;;;;;;4.50;2.67;;;6.70;99.90;;;;;;4974872;28;20231;-62
2022/11/05 05:13:31;;;;;;;3.37;2.43;;;6.60;99.90;;;;;;4985038;28;20715;-62
2022/11/05 05:15:58;;;;;;;8.00;2.40;;;6.70;99.90;;;;;;4987200;28;20202;-62
2022/11/05 05:18:25;;;;;;;5.97;2.80;;;6.60;99.90;;;;;;4999075;28;20214;-61
2022/11/05 05:23:37;;;;;;;9.73;2.10;;;6.50;99.90;;;;;;5001036;28;20205;-62
2022/11/05 05:26:04;;;;;;;8.87;2.47;;;6.50;99.90;;;;;;4993926;28;20213;-62
2022/11/05 05:28:32;;;;;;;4.93;2.27;;;6.40;99.90;;;;;;4995781;28;20202;-62
2022/11/05 05:30:59;;;;;;;5.80;2.33;;;6.40;99.90;;;;;;4996508;28;20226;-62
2022/11/05 05:33:26;;;;;;;7.53;2.47;;;6.50;99.90;;;;;;4977262;28;20229;-62
2022/11/05 05:35:53;;;;;;;4.93;2.57;;;6.50;99.90;;;;;;5011311;28;20889;-62
2022/11/05 05:38:20;;;;;;;5.40;2.43;;;6.50;99.90;;;;;;4975414;28;20201;-62
2022/11/05 05:40:46;;;;;;;7.60;2.10;;;6.60;99.90;;;;;;4985779;28;20209;-62
2022/11/05 05:43:13;;;;;;;3.97;2.30;;;6.60;99.90;;;;;;4997254;28;20561;-62
2022/11/05 05:45:42;;;;;;;7.80;2.27;;;6.60;99.90;;;;;;5005822;28;20785;-62
2022/11/05 05:48:09;;;;;;;5.30;2.43;;;6.60;99.90;;;;;;4974389;28;20198;-62
2022/11/05 05:50:36;;;;;;;7.70;2.63;;;6.70;99.90;;;;;;4996744;28;20251;-62
2022/11/05 05:53:03;;;;;;;5.73;2.27;;;6.60;99.90;;;;;;4992715;28;20594;-62
2022/11/05 05:55:29;;;;;;;4.70;2.23;;;6.60;99.90;;;;;;4956358;28;20667;-62
2022/11/05 05:57:56;;;;;;;7.53;2.60;;;6.50;99.90;;;;;;4990035;28;20195;-62
2022/11/05 06:00:23;;;;;;;7.87;2.80;;;6.50;99.90;;;;;;4970883;28;20221;-62
2022/11/05 06:02:51;;;;;;;6.97;2.43;;;6.50;99.90;;;;;;4961009;28;20206;-62
2022/11/05 06:05:18;;;;;;;4.37;3.00;;;6.50;99.90;;;;;;4970792;28;20217;-62
2022/11/05 06:07:45;;;;;;;5.60;2.90;;;6.70;99.90;;;;;;4967603;28;20202;-62
2022/11/05 06:10:11;;;;;;;5.13;2.90;;;6.50;99.90;;;;;;4984045;28;20226;-62
2022/11/05 06:12:38;;;;;;;5.10;2.67;;;6.60;99.90;;;;;;4962468;28;20210;-62
2022/11/05 06:15:06;;;;;;;3.80;2.73;;;6.40;99.90;;;;;;4991381;28;20214;-62
2022/11/05 06:17:33;;;;;;;6.40;3.10;;;6.50;99.90;;;;;;4970843;28;22025;-62
2022/11/05 06:20:01;;;;;;;8.83;3.00;;;6.50;99.90;;;;;;4969042;28;20228;-62
2022/11/05 06:22:29;;;;;;;6.30;3.20;;;6.40;99.90;;;;;;4979927;28;20231;-63
2022/11/05 06:24:55;;;;;;;5.27;3.17;;;6.50;99.90;;;;;;4974421;28;20206;-62
2022/11/05 06:27:22;;;;;;;5.73;2.97;;;6.50;99.90;;;;;;4959907;28;20253;-61
2022/11/05 06:29:49;;;;;;;6.47;2.97;;;6.40;99.90;;;;;;4972721;28;20210;-62
2022/11/05 06:32:16;;;;;;;3.60;2.70;;;6.40;99.90;;;;;;4969694;28;20239;-62
2022/11/05 06:34:43;;;;;;;3.93;2.37;;;6.30;99.90;;;;;;4945607;28;20229;-62
2022/11/05 06:37:11;;;;;;;7.83;3.10;;;6.50;99.90;;;;;;4980594;28;23803;-62
2022/11/05 06:39:38;;;;;;;4.33;2.73;;;6.40;99.90;;;;;;4966747;28;20715;-62
2022/11/05 06:42:04;;;;;;;5.80;2.93;;;6.40;99.90;;;;;;4939376;28;20234;-62
2022/11/05 06:44:31;;;;;;;5.63;3.03;;;6.40;99.90;;;;;;4975513;28;20897;-62
2022/11/05 06:46:59;;;;;;;3.30;2.50;;;6.40;99.90;;;;;;4977132;28;20244;-61
2022/11/05 06:49:26;;;;;;;10.27;3.37;;;6.40;99.90;;;;;;4948639;28;21089;-62
2022/11/05 06:51:53;;;;;;;9.27;3.10;;;6.40;99.90;;;;;;4976188;28;20230;-62
2022/11/05 06:54:21;;;;;;;5.10;2.87;;;6.40;99.90;;;;;;4973713;28;20198;-62
2022/11/05 06:56:48;;;;;;;5.93;3.00;;;6.50;99.90;;;;;;4959427;28;20234;-62
2022/11/05 06:59:14;;;;;;;7.83;2.70;;;6.40;99.90;;;;;;4983777;28;20817;-62
2022/11/05 07:01:41;;;;;;;5.90;2.80;;;6.50;99.90;;;;;;4966698;28;20208;-62
2022/11/05 07:04:08;;;;;;;7.07;3.30;;;6.40;99.90;;;;;;4958026;28;20612;-62
2022/11/05 07:06:35;;;;;;;5.33;3.43;;;6.40;99.90;;;;;;4962278;28;20217;-62
2022/11/05 07:09:02;;;;;;;7.03;3.57;;;6.50;99.90;;;;;;4977337;28;20209;-62
2022/11/05 07:11:30;;;;;;;5.10;2.90;;;6.50;99.90;;;;;;4973631;28;20226;-62
2022/11/05 07:13:56;;;;;;;4.37;2.97;;;6.60;99.90;;;;;;4960092;28;20218;-62
2022/11/05 07:16:23;;;;;;;4.57;3.17;;;6.70;99.90;;;;;;4972517;28;20257;-62
2022/11/05 07:18:51;;;;;;;8.30;3.47;;;6.70;99.90;;;;;;4967748;28;20211;-62
2022/11/05 07:21:18;;;;;;;8.60;3.50;;;6.70;99.90;;;;;;4965970;28;20254;-62
2022/11/05 07:23:45;;;;;;;7.43;2.93;;;6.70;99.90;;;;;;4979099;28;20481;-62
2022/11/05 07:26:12;;;;;;;6.10;2.90;;;6.70;99.90;;;;;;4968735;28;24294;-62
2022/11/05 07:28:40;;;;;;;5.87;3.17;;;6.80;99.90;;;;;;4959364;28;20210;-62
2022/11/05 07:31:07;;;;;;;7.47;3.20;;;6.80;99.90;;;;;;4969100;28;20222;-64
2022/11/05 07:33:34;;;;;;;12.27;7.63;;;6.80;99.90;;;;;;4969597;28;20226;-62
2022/11/05 07:36:00;;;;;;;8.10;4.10;;;6.80;99.90;;;;;;4949137;28;20233;-62
2022/11/05 07:38:27;;;;;;;4.80;3.50;;;6.80;99.90;;;;;;4941497;28;20237;-62
2022/11/05 07:40:54;;;;;;;6.77;4.47;;;6.80;99.90;;;;;;4968936;28;20226;-62
2022/11/05 07:43:21;;;;;;;6.40;3.50;;;6.90;99.90;;;;;;4942468;28;20233;-62
2022/11/05 07:45:49;;;;;;;8.57;4.00;;;6.90;99.90;;;;;;4973595;28;20234;-62
2022/11/05 07:48:15;;;;;;;6.80;3.20;;;7.00;99.90;;;;;;4968218;28;20245;-62
2022/11/05 07:50:42;;;;;;;6.70;4.10;;;7.00;99.90;;;;;;4964820;28;20233;-62
2022/11/05 07:53:12;;;;;;;6.23;4.53;;;7.00;99.90;;;;;;4961680;28;20206;-63
2022/11/05 07:55:40;;;;;;;8.33;4.20;;;7.10;99.90;;;;;;4959347;28;20728;-62
2022/11/05 07:58:07;;;;;;;9.53;4.70;;;7.10;99.90;;;;;;4956902;28;20773;-62
2022/11/05 08:00:34;;;;;;;7.87;4.67;;;7.10;99.90;;;;;;4970720;28;20217;-62
2022/11/05 08:03:04;;;;;;;9.80;3.60;;;7.10;99.90;;;;;;4975146;28;21039;-63
2022/11/05 08:05:33;;;;;;;5.57;3.60;;;7.20;99.90;;;;;;4964196;28;20276;-62
2022/11/05 08:08:00;;;;;;;7.00;3.90;;;7.30;99.90;;;;;;4960844;28;20932;-62
2022/11/05 08:10:27;;;;;;;5.20;3.47;;;7.40;99.90;;;;;;4960713;28;20226;-62
2022/11/05 08:12:54;;;;;;;5.80;3.30;;;7.50;99.90;;;;;;4955689;28;21023;-63
2022/11/05 08:15:21;;;;;;;6.87;3.50;;;7.60;99.90;;;;;;4978565;28;20240;-62
2022/11/05 08:17:48;;;;;;;4.57;3.10;;;7.70;99.90;;;;;;4980475;28;20253;-63
2022/11/05 08:20:17;;;;;;;8.43;3.80;;;7.80;99.90;;;;;;4965623;28;21853;-63
2022/11/05 08:22:45;;;;;;;4.60;2.90;;;7.80;99.90;;;;;;4957659;28;20233;-62
2022/11/05 08:25:13;;;;;;;4.63;3.20;;;7.90;99.90;;;;;;4969242;28;20214;-62
2022/11/05 08:27:39;;;;;;;5.73;3.57;;;7.90;99.90;;;;;;4976318;28;20691;-63
2022/11/05 08:30:08;;;;;;;6.37;2.90;;;8.00;99.90;;;;;;4957716;28;20229;-63
2022/11/05 08:32:35;;;;;;;3.87;2.90;;;8.10;99.90;;;;;;4976910;28;20236;-62
2022/11/05 08:35:01;;;;;;;4.00;2.53;;;8.20;99.90;;;;;;4984196;28;20951;-62
2022/11/05 08:37:29;;;;;;;11.90;2.87;;;8.30;99.90;;;;;;4942875;28;20718;-62
2022/11/05 08:39:56;;;;;;;4.23;2.90;;;8.30;99.90;;;;;;4961957;28;20225;-62
2022/11/05 08:42:23;;;;;;;8.63;3.00;;;8.30;99.90;;;;;;4955942;28;20226;-62
2022/11/05 08:44:50;;;;;;;10.17;3.13;;;8.30;99.90;;;;;;4961621;28;20233;-62
2022/11/05 08:47:17;;;;;;;4.03;3.10;;;8.30;99.90;;;;;;4971026;28;20251;-62
2022/11/05 08:49:43;;;;;;;10.20;2.70;;;8.30;99.90;;;;;;4967974;28;20222;-62
2022/11/05 08:52:10;;;;;;;7.27;2.90;;;8.30;99.90;;;;;;4945105;28;20225;-63
2022/11/05 08:54:38;;;;;;;2.90;2.57;;;8.30;99.90;;;;;;4946676;28;20229;-62
2022/11/05 08:57:05;;;;;;;3.73;3.00;;;8.30;99.90;;;;;;4967991;28;20221;-62
2022/11/05 08:59:32;;;;;;;5.80;2.67;;;8.30;99.90;;;;;;4953630;28;20214;-62
2022/11/05 09:01:59;;;;;;;3.70;2.73;;;8.30;99.90;;;;;;4959422;28;20202;-62
2022/11/05 09:04:25;;;;;;;6.77;2.60;;;8.40;99.90;;;;;;4971221;28;20222;-62
2022/11/05 09:06:52;;;;;;;7.57;3.37;;;8.40;99.90;;;;;;4967638;28;20226;-63
2022/11/05 09:09:19;;;;;;;4.93;3.00;;;8.50;99.90;;;;;;4941176;28;20222;-64
2022/11/05 09:11:47;;;;;;;5.00;2.80;;;8.50;99.90;;;;;;4965732;28;20836;-66
2022/11/05 09:14:14;;;;;;;4.30;2.63;;;8.50;99.90;;;;;;4938086;28;20226;-63
2022/11/05 09:16:42;;;;;;;3.47;2.83;;;8.50;99.90;;;;;;4975612;28;22276;-63
2022/11/05 09:19:09;;;;;;;4.47;2.60;;;8.40;99.90;;;;;;4976740;28;20222;-62
2022/11/05 09:21:36;;;;;;;9.20;3.40;;;8.70;99.90;;;;;;4974705;28;20229;-63
2022/11/05 09:24:03;;;;;;;4.97;2.50;;;8.50;99.90;;;;;;4943422;28;20780;-62
2022/11/05 09:26:30;;;;;;;5.70;2.63;;;8.50;99.90;;;;;;4965556;28;20226;-63
2022/11/05 09:28:58;;;;;;;6.73;2.83;;;8.70;99.90;;;;;;4948016;28;20226;-63
2022/11/05 09:31:25;;;;;;;4.30;3.10;;;9.00;99.90;;;;;;4987234;28;20245;-63
2022/11/05 09:33:52;;;;;;;7.07;3.73;;;9.00;99.90;;;;;;4982082;28;20225;-62
2022/11/05 09:36:18;;;;;;;5.90;2.97;;;9.00;99.90;;;;;;4996725;28;20226;-62
2022/11/05 09:38:45;;;;;;;5.00;2.65;;;9.00;99.90;;;;;;4978655;28;21417;-62
2022/11/05 09:41:18;;;;;;;4.85;3.00;;;9.00;99.90;;;;;;4963163;28;20224;-62
2022/11/05 09:43:50;;;;;;;12.20;3.30;;;9.00;99.90;;;;;;4966928;28;20234;-62
2022/11/05 09:46:23;;;;;;;7.25;3.20;;;9.00;99.90;;;;;;4978186;28;20236;-62
2022/11/05 09:48:53;;;;;;;6.33;2.80;;;9.00;99.90;;;;;;4987029;28;20733;-62
2022/11/05 09:51:21;;;;;;;8.43;2.88;;;9.10;99.90;;;;;;4998867;28;20235;-62
2022/11/05 09:53:49;;;;;;;3.97;2.37;;;9.10;99.90;;;;;;4969173;28;20233;-62
2022/11/05 09:56:22;;;;;;;6.77;3.13;;;9.20;99.90;;;;;;4972557;28;20210;-63
2022/11/05 09:58:54;;;;;;;2.35;2.15;;;9.30;99.90;;;;;;4965637;28;20230;-63
2022/11/05 10:01:25;;;;;;;3.37;2.63;;;9.40;99.90;;;;;;4953709;28;20253;-63
2022/11/05 10:03:55;;;;;;;4.83;2.00;;;9.40;99.90;;;;;;4968805;28;20221;-63
2022/11/05 10:06:24;;;;;;;3.17;2.50;;;9.40;99.90;;;;;;4964525;28;20218;-63
2022/11/05 10:08:57;;;;;;;4.70;3.05;;;9.40;99.90;;;;;;4979607;28;20246;-63
2022/11/05 10:11:29;;;;;;;5.18;2.70;;;9.40;99.90;;;;;;4938968;28;20245;-63
2022/11/05 10:13:59;;;;;;;4.80;2.65;;;9.50;99.90;;;;;;4960788;28;20288;-62
2022/11/05 10:16:30;;;;;;;4.55;2.80;;;9.60;99.90;;;;;;4954842;28;20233;-61
2022/11/05 10:19:01;;;;;;;4.90;2.73;;;9.70;99.90;;;;;;4984871;28;20222;-63
2022/11/05 10:21:29;;;;;;;9.95;2.80;;;9.70;99.90;;;;;;4991157;28;20202;-63
2022/11/05 10:23:56;;;;;;;4.13;2.47;;;9.70;99.90;;;;;;4970424;28;21003;-62
2022/11/05 10:26:26;;;;;;;5.88;2.88;;;9.70;99.90;;;;;;4947221;28;20260;-63
2022/11/05 10:28:53;;;;;;;3.85;2.78;;;9.80;99.90;;;;;;4949215;28;20222;-63
2022/11/05 10:31:22;;;;;;;4.80;2.97;;;9.80;99.90;;;;;;4957942;28;20600;-63
2022/11/05 10:33:54;;;;;;;5.18;2.40;;;9.80;99.90;;;;;;4981344;28;20206;-63
2022/11/05 10:36:24;;;;;;;5.78;2.75;;;9.90;99.90;;;;;;4975256;28;21023;-63
2022/11/05 10:38:51;;;;;;;7.57;3.35;;;9.90;99.90;;;;;;4971883;28;20699;-62
2022/11/05 10:41:34;;;;;;;4.60;2.65;;;9.90;99.90;;;;;;4984290;28;20706;-63
2022/11/05 10:44:10;;;;;;;6.43;2.88;;;10.00;99.90;;;;;;4958122;28;20238;-63
2022/11/05 10:46:41;;;;;;;2.85;2.33;;;10.00;99.90;;;;;;4973630;28;20229;-63
2022/11/05 10:49:22;;;;;;;2.65;2.03;;;10.00;99.90;;;;;;4986880;28;20225;-63
2022/11/05 10:51:56;;;;;;;3.72;2.80;;;10.00;99.90;;;;;;4986140;28;20225;-63
2022/11/05 10:54:26;;;;;;;4.28;2.95;;;10.10;99.90;;;;;;4985152;28;20206;-64
2022/11/05 10:56:53;;;;;;;5.25;2.58;;;10.10;99.90;;;;;;4973531;28;20221;-63
2022/11/05 10:59:22;;;;;;;3.90;3.08;;;10.10;99.90;;;;;;4960141;28;20226;-63
2022/11/05 11:01:56;;;;;;;8.15;3.05;;;10.20;99.90;;;;;;4969215;28;20222;-63
2022/11/05 11:04:27;;;;;;;5.50;2.83;;;10.20;99.90;;;;;;4983725;28;20205;-63
2022/11/05 11:06:55;;;;;;;4.93;2.65;;;10.20;99.90;;;;;;4978646;28;20220;-63
2022/11/05 11:09:26;;;;;;;5.43;2.75;;;10.20;99.90;;;;;;4996720;28;20214;-62
2022/11/05 11:12:01;;;;;;;6.63;2.50;;;10.30;99.90;;;;;;4973430;28;20229;-63
2022/11/05 11:14:28;;;;;;;4.15;2.67;;;10.40;99.90;;;;;;4955749;28;20202;-63
2022/11/05 11:17:14;;;;;;;4.88;2.72;;;10.40;99.90;;;;;;4990898;28;20210;-63
2022/11/05 11:19:43;;;;;;;5.38;2.50;;;10.40;99.90;;;;;;4986244;28;20206;-63
2022/11/05 11:22:17;;;;;;;5.60;2.60;;;10.40;99.90;;;;;;4984619;28;20907;-63
2022/11/05 11:24:46;;;;;;;6.07;2.85;;;10.50;99.90;;;;;;4996622;28;20263;-63
2022/11/05 11:27:17;;;;;;;4.13;3.05;;;10.50;99.90;;;;;;4989231;28;20293;-63
2022/11/05 11:29:48;;;;;;;3.17;2.63;;;10.50;99.90;;;;;;4974437;28;20297;-64
2022/11/05 11:32:18;;;;;;;4.90;2.67;;;10.60;99.90;;;;;;4975069;28;20236;-63
2022/11/05 11:34:50;;;;;;;15.00;4.35;;;10.60;99.90;;;;;;4953014;28;20221;-62
2022/11/05 11:37:21;;;;;;;5.20;2.50;;;10.60;99.90;;;;;;4980201;28;20255;-63
2022/11/05 11:39:51;;;;;;;2.80;2.30;;;10.70;99.90;;;;;;4983064;28;20202;-63
2022/11/05 11:42:23;;;;;;;4.60;2.22;;;10.70;99.90;;;;;;4988762;28;20202;-62
2022/11/05 11:44:51;;;;;;;4.03;2.60;;;10.70;99.90;;;;;;4971837;28;20203;-63
2022/11/05 11:47:21;;;;;;;6.50;3.00;;;10.80;99.90;;;;;;4971798;28;20719;-63
2022/11/05 11:49:52;;;;;;;5.55;2.58;;;10.80;99.90;;;;;;4966172;28;20213;-63
2022/11/05 11:52:28;;;;;;;4.65;2.53;;;10.80;99.90;;;;;;4974545;28;20218;-63
2022/11/05 11:55:16;;;;;;;3.10;2.17;;;10.80;99.90;;;;;;4993359;28;20237;-62
2022/11/05 11:57:44;;;;;;;2.78;1.90;;;10.80;99.90;;;;;;4978929;28;20218;-63
2022/11/05 12:00:12;;;;;;;3.28;2.42;;;10.90;99.90;;;;;;4971350;28;20230;-63
2022/11/05 12:02:56;;;;;;;2.53;2.33;;;10.90;99.90;;;;;;4981629;28;20213;-63
2022/11/05 12:05:34;;;;;;;7.32;2.85;;;10.90;99.90;;;;;;4951238;28;20243;-62
2022/11/05 12:08:15;;;;;;;6.78;2.53;;;10.90;99.90;;;;;;4977998;28;20297;-62
2022/11/05 12:10:53;;;;;;;10.63;2.50;;;11.00;99.90;;;;;;4981950;28;20198;-63
2022/11/05 12:13:41;;;;;;;6.88;2.42;;;11.00;99.90;;;;;;4981870;28;20234;-63
2022/11/05 12:16:15;;;;;;;11.82;3.13;;;10.70;99.90;;;;;;4961851;28;20601;-62
2022/11/05 12:18:48;;;;;;;6.88;2.92;;;11.00;99.90;;;;;;4973926;28;20214;-62
2022/11/05 12:21:24;;;;;;;3.72;2.42;;;11.00;99.90;;;;;;4981400;28;21268;-62
2022/11/05 12:24:10;;;;;;;3.38;2.35;;;11.10;99.90;;;;;;4980400;28;20230;-62
2022/11/05 12:26:47;;;;;;;7.00;3.13;;;11.10;99.90;;;;;;4993056;28;20702;-62
2022/11/05 12:29:31;;;;;;;5.10;2.05;;;11.10;99.90;;;;;;4983291;28;20220;-62
2022/11/05 12:32:30;;;;;;;7.63;2.90;;;11.10;99.90;;;;;;4982157;28;20205;-63
2022/11/05 12:35:09;;;;;;;6.93;2.70;;;11.10;99.90;;;;;;4969514;28;20214;-64
2022/11/05 12:37:45;;;;;;;6.88;2.45;;;11.20;99.90;;;;;;4982615;28;21414;-62
2022/11/05 12:40:32;;;;;;;4.38;2.35;;;11.30;99.90;;;;;;4983378;28;20220;-63
2022/11/05 12:43:10;;;;;;;6.50;2.33;;;11.30;99.90;;;;;;4984021;28;20740;-63
2022/11/05 12:45:47;;;;;;;6.97;2.78;;;11.30;99.90;;;;;;4963427;28;20236;-63
2022/11/05 12:48:33;;;;;;;4.72;2.22;;;11.30;99.90;;;;;;4978999;28;20221;-63
2022/11/05 12:51:11;;;;;;;3.50;2.53;;;11.30;99.90;;;;;;4953845;28;20217;-62
2022/11/05 12:53:53;;;;;;;7.88;2.25;;;11.30;99.90;;;;;;4987362;28;20263;-63
2022/11/05 12:56:30;;;;;;;2.72;2.33;;;11.40;99.90;;;;;;4986276;28;20226;-65
2022/11/05 12:59:01;;;;;;;5.07;2.38;;;11.50;99.90;;;;;;4980362;28;20225;-63
2022/11/05 13:01:33;;;;;;;5.45;1.92;;;11.50;99.90;;;;;;4967964;28;20230;-63
2022/11/05 13:04:05;;;;;;;8.65;2.63;;;11.50;99.90;;;;;;4974929;28;20210;-63
2022/11/05 13:06:39;;;;;;;6.20;2.33;;;11.50;99.90;;;;;;4980050;28;20229;-63
2022/11/05 13:09:13;;;;;;;5.90;2.33;;;11.50;99.90;;;;;;4987544;28;21366;-63
2022/11/05 13:11:45;;;;;;;5.32;2.40;;;11.50;99.90;;;;;;4974365;28;20225;-63
2022/11/05 13:14:16;;;;;;;3.80;1.95;;;11.50;99.90;;;;;;4993472;28;20881;-63
2022/11/05 13:16:46;;;;;;;3.35;2.17;;;11.50;99.90;;;;;;4981477;28;20220;-63
2022/11/05 13:19:19;;;;;;;3.22;2.15;;;11.40;99.90;;;;;;4975149;28;20224;-64
2022/11/05 13:21:52;;;;;;;4.72;2.28;;;11.40;99.90;;;;;;4982848;28;20210;-63
2022/11/05 13:24:24;;;;;;;12.93;2.90;;;11.40;99.90;;;;;;4946242;28;20230;-63
2022/11/05 13:26:54;;;;;;;8.50;3.20;;;11.40;99.90;;;;;;4992868;28;20655;-62
2022/11/05 13:29:25;;;;;;;6.60;2.60;;;11.40;99.90;;;;;;4976714;28;20241;-62
2022/11/05 13:31:56;;;;;;;8.73;2.83;;;11.30;99.90;;;;;;4974241;28;20252;-62
2022/11/05 13:34:23;;;;;;;5.45;2.85;;;11.30;99.90;;;;;;4968101;28;20329;-63
2022/11/05 13:39:48;;;;;;;4.65;2.47;;;11.30;99.90;;;;;;4993661;28;20233;-62
2022/11/05 13:42:47;;;;;;;4.50;3.10;;;11.30;99.90;;;;;;4987090;28;20364;-63
2022/11/05 13:45:45;;;;;;;4.32;2.70;;;11.30;99.90;;;;;;4980656;28;20737;-63
2022/11/05 13:49:06;;;;;;;5.80;3.78;;;11.20;99.90;;;;;;4941201;28;20233;-63
2022/11/05 13:51:46;;;;;;;3.72;2.58;;;11.20;99.90;;;;;;4995780;28;20202;-63
2022/11/05 13:54:42;;;;;;;3.13;2.80;;;11.20;99.90;;;;;;4971251;28;20225;-63
2022/11/05 13:57:31;;;;;;;7.03;3.38;;;11.20;99.90;;;;;;4981516;28;21238;-63